Time;durP1;ratioP1;P1;durP2;ratioP2;P2;SDS_P1;SDS_P2;PMS_P1;PMS_P2;Temp;Humidity;BMP_temperature;BMP_pressure;BME280_temperature;BME280_humidity;BME280_pressure;Samples;Min_cycle;Max_cycle;Signal;HPM_P1;HPM_P2
2021/07/28 00:00:13;;;;;;;15.48;5.65;;;20.70;99.90;;;;;;5095731;28;20032;-88
2021/07/28 00:02:40;;;;;;;10.73;5.03;;;20.60;99.90;;;;;;5095825;28;20459;-88
2021/07/28 00:05:06;;;;;;;11.38;5.20;;;20.50;99.90;;;;;;5096267;28;20123;-87
2021/07/28 00:07:31;;;;;;;11.55;5.53;;;20.40;99.90;;;;;;5096350;28;20466;-87
2021/07/28 00:09:57;;;;;;;8.32;5.15;;;20.40;99.90;;;;;;5095946;28;20024;-87
2021/07/28 00:12:23;;;;;;;11.43;5.28;;;20.30;99.90;;;;;;5095756;28;20091;-87
2021/07/28 00:14:49;;;;;;;13.20;5.45;;;20.30;99.90;;;;;;5095238;28;20028;-87
2021/07/28 00:17:15;;;;;;;10.77;5.35;;;20.20;99.90;;;;;;5095615;28;20467;-86
2021/07/28 00:19:52;;;;;;;10.38;5.13;;;20.20;99.90;;;;;;5096070;28;20035;-86
2021/07/28 00:25:04;;;;;;;9.35;5.05;;;20.20;99.90;;;;;;5097268;28;20120;-86
2021/07/28 00:27:30;;;;;;;13.80;5.88;;;20.20;99.90;;;;;;5095370;28;20077;-86
2021/07/28 00:29:56;;;;;;;11.43;5.43;;;20.20;99.90;;;;;;5095623;28;20055;-85
2021/07/28 00:32:22;;;;;;;10.77;6.00;;;20.10;99.90;;;;;;5095491;28;20119;-85
2021/07/28 00:34:48;;;;;;;15.07;5.60;;;20.10;99.90;;;;;;5096392;28;20122;-84
2021/07/28 00:37:14;;;;;;;12.75;5.75;;;20.10;99.90;;;;;;5096014;28;20446;-86
2021/07/28 00:39:39;;;;;;;13.88;5.85;;;20.10;99.90;;;;;;5098994;28;20376;-86
2021/07/28 00:42:05;;;;;;;10.77;6.05;;;20.00;99.90;;;;;;5098670;28;20098;-85
2021/07/28 00:44:31;;;;;;;13.25;5.55;;;20.00;99.90;;;;;;5095241;28;20107;-85
2021/07/28 00:46:56;;;;;;;11.27;5.80;;;20.00;99.90;;;;;;5095548;28;20031;-88
2021/07/28 00:49:24;;;;;;;10.13;5.40;;;20.00;99.90;;;;;;5094600;28;20364;-85
2021/07/28 00:51:51;;;;;;;11.98;5.72;;;20.00;99.90;;;;;;5094839;28;20428;-85
2021/07/28 00:54:17;;;;;;;9.32;5.40;;;20.00;99.90;;;;;;5094647;28;20471;-85
2021/07/28 00:56:43;;;;;;;10.82;5.25;;;20.00;99.90;;;;;;5094736;28;20027;-85
2021/07/28 00:59:09;;;;;;;12.15;5.55;;;20.10;99.90;;;;;;5095346;28;20032;-86
2021/07/28 01:01:38;;;;;;;12.23;6.30;;;20.10;99.90;;;;;;5094411;28;20020;-86
2021/07/28 01:04:04;;;;;;;11.02;5.10;;;20.00;99.90;;;;;;5094620;28;20107;-86
2021/07/28 01:06:33;;;;;;;9.10;5.18;;;20.00;99.90;;;;;;5095125;28;20119;-87
2021/07/28 01:09:00;;;;;;;9.63;5.18;;;20.00;99.90;;;;;;5094716;28;20027;-85
2021/07/28 01:11:27;;;;;;;15.35;6.20;;;20.00;99.90;;;;;;5094236;28;20020;-86
2021/07/28 01:13:55;;;;;;;11.45;6.63;;;20.00;99.90;;;;;;5094078;28;20111;-86
2021/07/28 01:16:23;;;;;;;13.50;6.35;;;20.00;99.90;;;;;;5094062;28;20063;-85
2021/07/28 01:18:50;;;;;;;11.13;5.78;;;20.00;99.90;;;;;;5093963;28;20535;-85
2021/07/28 01:21:19;;;;;;;11.27;5.72;;;20.00;99.90;;;;;;5093951;28;20081;-88
2021/07/28 01:23:47;;;;;;;9.80;5.68;;;20.00;99.90;;;;;;5093775;28;20024;-86
2021/07/28 01:26:14;;;;;;;11.77;5.90;;;20.00;99.90;;;;;;5094188;28;20379;-85
2021/07/28 01:28:40;;;;;;;12.10;6.55;;;20.00;99.90;;;;;;5094430;28;20020;-85
2021/07/28 01:31:11;;;;;;;12.52;6.43;;;19.90;99.90;;;;;;5094572;28;20048;-85
2021/07/28 01:33:45;;;;;;;14.43;6.25;;;19.90;99.90;;;;;;5093997;28;20036;-86
2021/07/28 01:36:21;;;;;;;14.93;6.20;;;19.90;99.90;;;;;;5094187;28;20028;-86
2021/07/28 01:38:47;;;;;;;13.10;6.53;;;19.90;99.90;;;;;;5093907;28;20023;-86
2021/07/28 01:41:13;;;;;;;12.10;6.15;;;19.90;99.90;;;;;;5093875;28;20467;-88
2021/07/28 01:43:41;;;;;;;9.75;5.68;;;19.90;99.90;;;;;;5093676;28;20024;-86
2021/07/28 01:46:07;;;;;;;13.45;5.90;;;20.00;99.90;;;;;;5094127;28;20035;-85
2021/07/28 01:48:34;;;;;;;9.15;5.97;;;19.90;99.90;;;;;;5093817;28;20024;-85
2021/07/28 01:51:00;;;;;;;9.70;5.30;;;20.00;99.90;;;;;;5094097;28;20028;-87
2021/07/28 01:53:27;;;;;;;11.20;5.82;;;19.90;99.90;;;;;;5093923;28;20070;-86
2021/07/28 01:55:54;;;;;;;9.68;5.60;;;19.80;99.90;;;;;;5094475;28;20085;-89
2021/07/28 01:58:20;;;;;;;10.60;5.75;;;19.90;99.90;;;;;;5093873;28;20020;-86
2021/07/28 02:00:47;;;;;;;11.75;5.18;;;19.90;99.90;;;;;;5094341;28;20023;-86
2021/07/28 02:03:13;;;;;;;11.02;5.28;;;19.90;99.90;;;;;;5093907;28;20089;-85
2021/07/28 02:05:43;;;;;;;13.43;5.15;;;19.90;99.90;;;;;;5094421;28;20023;-85
2021/07/28 02:08:12;;;;;;;11.77;5.45;;;19.90;99.90;;;;;;5094071;28;20034;-87
2021/07/28 02:10:42;;;;;;;11.35;5.55;;;19.90;99.90;;;;;;5094564;28;20024;-87
2021/07/28 02:13:09;;;;;;;9.73;5.05;;;19.90;99.90;;;;;;5094690;28;20020;-86
2021/07/28 02:15:35;;;;;;;12.13;5.13;;;19.90;99.90;;;;;;5094453;28;20031;-86
2021/07/28 02:18:02;;;;;;;11.60;5.05;;;19.90;99.90;;;;;;5094965;28;20103;-85
2021/07/28 02:20:29;;;;;;;10.80;5.00;;;19.90;99.90;;;;;;5094109;28;20024;-86
2021/07/28 02:22:55;;;;;;;10.10;5.60;;;19.80;99.90;;;;;;5093975;28;20024;-87
2021/07/28 02:25:21;;;;;;;10.23;5.75;;;19.80;99.90;;;;;;5094027;28;20034;-86
2021/07/28 02:27:47;;;;;;;10.15;5.05;;;19.80;99.90;;;;;;5094290;28;20024;-86
2021/07/28 02:30:14;;;;;;;11.65;6.55;;;19.80;99.90;;;;;;5094209;28;20051;-85
2021/07/28 02:32:40;;;;;;;11.38;6.05;;;19.80;99.90;;;;;;5093851;28;20016;-86
2021/07/28 02:35:07;;;;;;;11.98;6.35;;;19.80;99.90;;;;;;5094060;28;20024;-86
2021/07/28 02:37:34;;;;;;;14.85;6.18;;;19.80;99.90;;;;;;5094520;28;20024;-88
2021/07/28 02:40:00;;;;;;;11.63;6.25;;;19.80;99.90;;;;;;5093953;28;20028;-86
2021/07/28 02:42:26;;;;;;;11.95;6.40;;;19.80;99.90;;;;;;5094586;28;20020;-86
2021/07/28 02:44:52;;;;;;;16.30;6.70;;;19.80;99.90;;;;;;5098246;28;20031;-87
2021/07/28 02:47:18;;;;;;;9.55;5.80;;;19.90;99.90;;;;;;5097877;28;20068;-87
2021/07/28 02:49:44;;;;;;;13.65;6.70;;;19.90;99.90;;;;;;5094724;28;20020;-87
2021/07/28 02:52:10;;;;;;;11.52;6.07;;;19.90;99.90;;;;;;5096932;28;20020;-86
2021/07/28 02:54:35;;;;;;;11.43;5.82;;;19.80;99.90;;;;;;5098543;28;20127;-86
2021/07/28 02:57:01;;;;;;;12.27;6.25;;;19.80;99.90;;;;;;5098124;28;20024;-85
2021/07/28 02:59:27;;;;;;;13.88;6.05;;;19.80;99.90;;;;;;5097203;28;20028;-87
2021/07/28 03:01:53;;;;;;;10.82;5.75;;;19.70;99.90;;;;;;5097983;28;20024;-87
2021/07/28 03:04:19;;;;;;;9.93;6.15;;;19.70;99.90;;;;;;5097828;28;20062;-87
2021/07/28 03:06:45;;;;;;;10.63;6.25;;;19.70;99.90;;;;;;5098352;28;20036;-87
2021/07/28 03:09:11;;;;;;;9.52;5.57;;;19.70;99.90;;;;;;5098239;28;20072;-86
2021/07/28 03:11:37;;;;;;;9.60;5.60;;;19.60;99.90;;;;;;5097762;28;20024;-85
2021/07/28 03:14:03;;;;;;;9.95;5.00;;;19.60;99.90;;;;;;5097742;28;20032;-86
2021/07/28 03:16:29;;;;;;;9.63;5.07;;;19.60;99.90;;;;;;5097417;28;20496;-87
2021/07/28 03:18:55;;;;;;;8.95;4.93;;;19.50;99.90;;;;;;5097517;28;20467;-86
2021/07/28 03:21:20;;;;;;;9.02;4.82;;;19.50;99.90;;;;;;5096958;28;20111;-86
2021/07/28 03:23:46;;;;;;;10.95;5.10;;;19.50;99.90;;;;;;5097500;28;20020;-86
2021/07/28 03:26:12;;;;;;;15.77;5.43;;;19.50;99.90;;;;;;5095877;28;20023;-82
2021/07/28 03:28:37;;;;;;;9.77;4.60;;;19.40;99.90;;;;;;5095144;28;20034;-78
2021/07/28 03:31:03;;;;;;;7.38;4.57;;;20.70;99.90;;;;;;5094668;28;20428;-78
2021/07/28 03:33:29;;;;;;;7.70;4.80;;;21.50;99.90;;;;;;5096882;28;20482;-79
2021/07/28 03:35:55;;;;;;;10.60;4.82;;;22.10;99.90;;;;;;5095584;28;20411;-81
2021/07/28 03:38:21;;;;;;;8.35;4.15;;;22.20;99.90;;;;;;5095151;28;20352;-82
2021/07/28 03:40:46;;;;;;;7.00;3.60;;;22.40;99.90;;;;;;5095270;28;20072;-82
2021/07/28 03:43:13;;;;;;;9.18;4.70;;;22.40;99.90;;;;;;5095257;28;20028;-83
2021/07/28 03:45:39;;;;;;;7.55;4.47;;;21.90;99.90;;;;;;5098456;28;20035;-87
2021/07/28 03:48:05;;;;;;;7.57;4.47;;;21.50;99.90;;;;;;5095770;28;20024;-87
2021/07/28 03:50:30;;;;;;;12.38;4.57;;;21.40;99.90;;;;;;5095339;28;20031;-87
2021/07/28 03:52:57;;;;;;;9.23;3.90;;;21.20;99.90;;;;;;5094827;28;20020;-89
2021/07/28 03:55:23;;;;;;;11.90;4.43;;;21.30;99.90;;;;;;5095205;28;20115;-89
2021/07/28 03:57:49;;;;;;;12.18;5.00;;;21.30;99.90;;;;;;5095396;28;20034;-89
2021/07/28 04:00:15;;;;;;;7.05;3.90;;;21.20;99.90;;;;;;5095402;28;20114;-91
2021/07/28 04:02:40;;;;;;;7.95;4.03;;;21.10;99.90;;;;;;5093769;28;20083;-88
2021/07/28 04:05:07;;;;;;;5.90;3.75;;;21.30;99.90;;;;;;5095146;28;20028;-89
2021/07/28 04:07:32;;;;;;;8.77;4.50;;;21.50;99.90;;;;;;5095191;28;20087;-83
2021/07/28 04:09:58;;;;;;;7.72;3.85;;;21.70;99.90;;;;;;5095093;28;20054;-87
2021/07/28 04:12:24;;;;;;;9.30;5.03;;;21.90;99.90;;;;;;5094905;28;20092;-88
2021/07/28 04:14:49;;;;;;;7.18;4.40;;;21.80;99.90;;;;;;5094676;28;20036;-86
2021/07/28 04:17:15;;;;;;;10.05;5.00;;;22.10;99.90;;;;;;5094896;28;20020;-87
2021/07/28 04:19:43;;;;;;;9.80;4.57;;;22.00;99.90;;;;;;5094970;28;20028;-87
2021/07/28 04:22:09;;;;;;;9.05;4.45;;;21.70;99.90;;;;;;5094857;28;20513;-86
2021/07/28 04:24:35;;;;;;;6.78;4.00;;;21.60;99.90;;;;;;5094887;28;20467;-84
2021/07/28 04:27:00;;;;;;;8.38;4.45;;;21.40;99.90;;;;;;5095188;28;20032;-87
2021/07/28 04:29:26;;;;;;;6.43;3.90;;;21.30;99.90;;;;;;5094431;28;20028;-87
2021/07/28 04:31:52;;;;;;;12.32;4.10;;;21.30;99.90;;;;;;5094368;28;20035;-88
2021/07/28 04:34:18;;;;;;;6.60;3.67;;;21.30;99.90;;;;;;5094559;28;20032;-87
2021/07/28 04:36:43;;;;;;;7.60;4.03;;;21.30;99.90;;;;;;5094619;28;20016;-87
2021/07/28 04:39:09;;;;;;;8.70;4.78;;;21.60;99.90;;;;;;5094191;28;20042;-89
2021/07/28 04:41:35;;;;;;;9.40;4.30;;;21.60;99.90;;;;;;5094327;28;20053;-83
2021/07/28 04:44:00;;;;;;;9.35;5.60;;;21.30;99.90;;;;;;5094375;28;20061;-88
2021/07/28 04:46:26;;;;;;;20.92;9.75;;;21.10;99.90;;;;;;5094213;28;20036;-84
2021/07/28 04:48:54;;;;;;;23.45;12.07;;;21.50;99.90;;;;;;5094814;28;20053;-85
2021/07/28 04:51:20;;;;;;;15.35;8.60;;;21.50;99.90;;;;;;5100289;28;20032;-85
2021/07/28 04:53:45;;;;;;;12.00;6.25;;;21.80;99.90;;;;;;5094876;28;20040;-84
2021/07/28 04:56:11;;;;;;;10.68;5.70;;;22.00;99.90;;;;;;5095307;28;20016;-84
2021/07/28 04:58:37;;;;;;;9.73;5.47;;;21.70;99.90;;;;;;5094014;28;20032;-84
2021/07/28 05:01:03;;;;;;;11.90;5.20;;;21.60;99.90;;;;;;5093779;28;20020;-84
2021/07/28 05:03:28;;;;;;;11.48;5.57;;;21.40;99.90;;;;;;5093988;28;20554;-85
2021/07/28 05:05:54;;;;;;;9.73;5.00;;;21.30;99.90;;;;;;5093808;28;20020;-80
2021/07/28 05:08:19;;;;;;;11.15;4.68;;;21.30;99.90;;;;;;5094081;28;20027;-87
2021/07/28 05:10:48;;;;;;;9.60;4.20;;;21.40;99.90;;;;;;5093967;28;20031;-86
2021/07/28 05:13:13;;;;;;;12.60;4.68;;;21.60;99.90;;;;;;5096332;28;20379;-85
2021/07/28 05:15:39;;;;;;;8.73;5.15;;;21.70;99.90;;;;;;5096204;28;20024;-85
2021/07/28 05:18:05;;;;;;;8.07;4.45;;;21.70;99.90;;;;;;5094985;28;20031;-86
2021/07/28 05:20:30;;;;;;;6.65;4.03;;;22.20;99.90;;;;;;5094869;28;20118;-86
2021/07/28 05:22:56;;;;;;;8.32;5.07;;;22.50;99.90;;;;;;5096081;28;20024;-87
2021/07/28 05:25:22;;;;;;;9.38;5.22;;;22.80;99.90;;;;;;5095755;28;20019;-81
2021/07/28 05:27:47;;;;;;;9.02;4.53;;;22.90;99.60;;;;;;5094153;28;20089;-86
2021/07/28 05:30:14;;;;;;;11.43;4.15;;;22.90;99.90;;;;;;5093982;28;20046;-85
2021/07/28 05:32:40;;;;;;;12.07;4.97;;;22.80;99.90;;;;;;5092968;28;20371;-85
2021/07/28 05:35:06;;;;;;;13.15;4.68;;;22.70;99.90;;;;;;5092713;28;20021;-86
2021/07/28 05:37:33;;;;;;;12.88;4.32;;;22.70;99.90;;;;;;5092541;28;20090;-89
2021/07/28 05:39:59;;;;;;;9.13;4.30;;;22.70;99.90;;;;;;5092958;28;20030;-87
2021/07/28 05:42:24;;;;;;;10.43;4.07;;;22.80;99.90;;;;;;5092653;28;20114;-87
2021/07/28 05:44:50;;;;;;;8.15;4.55;;;22.90;99.90;;;;;;5092133;28;20063;-86
2021/07/28 05:47:16;;;;;;;12.85;4.82;;;23.10;99.90;;;;;;5092065;28;20016;-86
2021/07/28 05:49:41;;;;;;;14.15;4.82;;;23.20;99.90;;;;;;5092109;28;20123;-86
2021/07/28 05:52:07;;;;;;;8.55;4.18;;;23.30;99.90;;;;;;5092639;28;20471;-88
2021/07/28 05:54:41;;;;;;;9.60;4.40;;;23.40;99.90;;;;;;5091920;28;20379;-86
2021/07/28 05:57:07;;;;;;;7.85;4.57;;;23.50;99.90;;;;;;5092342;28;20036;-86
2021/07/28 05:59:32;;;;;;;12.30;3.95;;;23.60;99.60;;;;;;5092810;28;20128;-87
2021/07/28 06:01:58;;;;;;;10.68;4.50;;;23.60;99.00;;;;;;5091576;28;20027;-85
2021/07/28 06:04:24;;;;;;;8.32;4.53;;;23.70;99.00;;;;;;5091712;28;20039;-85
2021/07/28 06:06:49;;;;;;;7.50;4.00;;;23.80;99.10;;;;;;5091579;28;20371;-86
2021/07/28 06:09:15;;;;;;;9.93;4.32;;;24.00;98.60;;;;;;5091881;28;20031;-85
2021/07/28 06:11:41;;;;;;;9.32;4.47;;;24.20;98.70;;;;;;5091405;28;20020;-87
2021/07/28 06:14:06;;;;;;;8.85;4.10;;;24.40;98.60;;;;;;5091640;28;20032;-88
2021/07/28 06:16:32;;;;;;;9.95;3.30;;;24.60;97.20;;;;;;5091969;28;20020;-86
2021/07/28 06:18:58;;;;;;;7.63;3.30;;;24.80;91.70;;;;;;5091795;28;20028;-86
2021/07/28 06:21:24;;;;;;;7.65;3.78;;;25.00;91.10;;;;;;5091799;28;20017;-85
2021/07/28 06:23:50;;;;;;;6.03;2.90;;;25.10;89.30;;;;;;5092956;28;20085;-86
2021/07/28 06:26:16;;;;;;;9.98;3.30;;;25.20;84.90;;;;;;5093001;28;20146;-88
2021/07/28 06:28:42;;;;;;;10.32;3.60;;;25.40;84.40;;;;;;5095573;28;20028;-85
2021/07/28 06:31:08;;;;;;;6.45;3.78;;;25.50;84.00;;;;;;5095527;28;20044;-84
2021/07/28 06:33:33;;;;;;;7.05;3.30;;;25.70;84.60;;;;;;5095601;28;20539;-85
2021/07/28 06:35:59;;;;;;;9.88;3.55;;;25.90;83.60;;;;;;5095465;28;20116;-85
2021/07/28 06:38:25;;;;;;;8.65;3.17;;;26.00;81.20;;;;;;5101660;28;20028;-83
2021/07/28 06:40:50;;;;;;;9.52;3.58;;;26.20;77.70;;;;;;5095873;28;20031;-89
2021/07/28 06:43:16;;;;;;;6.90;2.85;;;26.30;75.40;;;;;;5099375;28;20032;-84
2021/07/28 06:45:42;;;;;;;8.13;3.03;;;26.40;74.00;;;;;;5101991;28;20012;-84
2021/07/28 06:48:07;;;;;;;9.20;3.22;;;26.40;74.10;;;;;;5101174;28;20024;-84
2021/07/28 06:50:33;;;;;;;8.07;3.55;;;26.50;72.80;;;;;;5102481;28;20048;-85
2021/07/28 06:52:59;;;;;;;7.13;3.10;;;26.50;73.70;;;;;;5104118;28;20443;-85
2021/07/28 06:55:25;;;;;;;9.23;2.58;;;26.70;71.80;;;;;;5103773;28;20055;-84
2021/07/28 06:57:51;;;;;;;8.95;3.00;;;26.80;70.70;;;;;;5102438;28;20055;-85
2021/07/28 07:00:17;;;;;;;9.27;3.28;;;26.90;72.10;;;;;;5096416;28;20004;-86
2021/07/28 07:02:43;;;;;;;8.13;3.13;;;27.00;71.70;;;;;;5102334;28;20065;-87
2021/07/28 07:05:11;;;;;;;6.57;3.05;;;27.00;68.80;;;;;;5104142;28;20083;-86
2021/07/28 07:07:37;;;;;;;10.68;3.53;;;26.90;68.00;;;;;;5105270;28;20039;-86
2021/07/28 07:10:24;;;;;;;7.03;2.90;;;26.90;68.70;;;;;;5105456;28;20024;-86
2021/07/28 07:12:50;;;;;;;8.35;2.80;;;26.90;69.50;;;;;;5102873;28;20028;-84
2021/07/28 07:15:16;;;;;;;6.32;2.72;;;27.10;69.40;;;;;;5100106;28;20032;-85
2021/07/28 07:17:42;;;;;;;9.52;3.45;;;27.10;68.50;;;;;;5104829;28;20035;-85
2021/07/28 07:20:11;;;;;;;5.90;3.10;;;27.20;68.90;;;;;;5099679;28;20031;-87
2021/07/28 07:22:37;;;;;;;7.60;2.90;;;27.20;68.90;;;;;;5096926;28;20604;-86
2021/07/28 07:25:04;;;;;;;7.00;3.50;;;27.30;68.10;;;;;;5099424;28;20024;-86
2021/07/28 07:27:30;;;;;;;12.63;3.33;;;27.40;67.70;;;;;;5098021;28;20027;-85
2021/07/28 07:29:56;;;;;;;8.38;3.10;;;27.50;68.10;;;;;;5100365;28;20100;-84
2021/07/28 07:32:29;;;;;;;6.80;3.05;;;27.60;67.50;;;;;;5099727;28;20028;-87
2021/07/28 07:34:56;;;;;;;7.70;3.13;;;27.60;66.90;;;;;;5098268;28;20036;-85
2021/07/28 07:37:21;;;;;;;9.15;3.53;;;27.70;67.40;;;;;;5096348;28;20027;-87
2021/07/28 07:39:47;;;;;;;9.00;3.10;;;27.80;66.60;;;;;;5104866;28;20024;-86
2021/07/28 07:42:15;;;;;;;6.13;2.80;;;27.80;68.00;;;;;;5101097;28;20109;-85
2021/07/28 07:44:43;;;;;;;6.00;3.30;;;27.90;67.90;;;;;;5103688;28;20062;-85
2021/07/28 07:47:09;;;;;;;8.52;3.13;;;28.10;67.40;;;;;;5106668;28;20043;-88
2021/07/28 07:49:35;;;;;;;7.63;2.95;;;28.30;68.10;;;;;;5092824;28;20442;-90
2021/07/28 07:52:00;;;;;;;8.45;3.60;;;28.40;66.40;;;;;;5110343;28;20024;-85
2021/07/28 07:54:26;;;;;;;8.05;3.00;;;28.50;66.60;;;;;;5107127;28;20032;-85
2021/07/28 07:56:52;;;;;;;8.65;3.30;;;28.50;65.80;;;;;;5106481;28;20050;-87
2021/07/28 07:59:17;;;;;;;10.82;3.35;;;28.50;66.70;;;;;;5110705;28;20024;-88
2021/07/28 08:01:43;;;;;;;7.90;3.50;;;28.60;66.70;;;;;;5108781;28;20085;-88
2021/07/28 08:04:09;;;;;;;6.43;3.10;;;28.60;66.70;;;;;;5105897;28;20028;-88
2021/07/28 08:06:35;;;;;;;6.03;3.47;;;28.70;65.40;;;;;;5105854;28;20028;-88
2021/07/28 08:09:01;;;;;;;11.38;3.38;;;28.80;67.00;;;;;;5096233;22;20062;-85
2021/07/28 08:11:26;;;;;;;7.72;3.10;;;29.00;67.00;;;;;;5066300;28;20036;-88
2021/07/28 08:13:52;;;;;;;7.65;3.30;;;29.20;66.50;;;;;;5057417;28;20037;-88
2021/07/28 08:16:20;;;;;;;10.68;3.45;;;29.40;66.30;;;;;;5053487;28;20021;-87
2021/07/28 08:18:50;;;;;;;10.20;3.80;;;29.60;64.90;;;;;;5054619;28;20025;-88
2021/07/28 08:21:17;;;;;;;9.93;3.45;;;29.60;62.80;;;;;;5055016;28;20052;-86
2021/07/28 08:23:45;;;;;;;10.82;3.38;;;29.60;63.20;;;;;;5054541;28;20055;-87
2021/07/28 08:26:13;;;;;;;10.52;3.58;;;29.60;63.40;;;;;;5054312;28;20017;-86
2021/07/28 08:28:39;;;;;;;12.20;3.65;;;29.70;65.10;;;;;;5054180;28;20095;-88
2021/07/28 08:31:04;;;;;;;8.48;3.97;;;29.80;64.80;;;;;;5052957;28;20017;-87
2021/07/28 08:33:30;;;;;;;8.63;3.55;;;30.00;65.20;;;;;;5052688;28;20055;-84
2021/07/28 08:35:58;;;;;;;14.52;3.60;;;30.20;61.90;;;;;;5053322;28;20035;-84
2021/07/28 08:38:25;;;;;;;10.30;3.75;;;30.20;60.90;;;;;;5053798;28;20460;-78
2021/07/28 08:40:59;;;;;;;7.95;3.00;;;30.20;63.70;;;;;;5055122;28;20033;-79
2021/07/28 08:43:27;;;;;;;13.05;3.53;;;30.30;63.90;;;;;;5053468;28;20063;-79
2021/07/28 08:45:55;;;;;;;7.78;3.78;;;30.50;62.50;;;;;;5053825;28;20025;-80
2021/07/28 08:48:24;;;;;;;8.88;3.47;;;30.60;62.30;;;;;;5053162;28;20388;-79
2021/07/28 08:50:53;;;;;;;8.88;3.67;;;30.50;60.50;;;;;;5053837;28;20021;-83
2021/07/28 08:53:18;;;;;;;8.07;3.35;;;30.70;60.90;;;;;;5053646;28;20119;-81
2021/07/28 08:55:45;;;;;;;7.30;3.13;;;30.80;60.80;;;;;;5053600;28;20049;-84
2021/07/28 08:58:17;;;;;;;8.73;3.00;;;30.90;60.20;;;;;;5053236;28;20025;-79
2021/07/28 09:00:44;;;;;;;20.45;3.40;;;31.00;60.80;;;;;;5052572;28;20021;-79
2021/07/28 09:03:10;;;;;;;10.90;4.10;;;31.10;61.20;;;;;;5053870;28;20021;-79
2021/07/28 09:05:44;;;;;;;5.80;2.80;;;31.20;59.50;;;;;;5052469;28;20052;-76
2021/07/28 09:08:29;;;;;;;7.68;3.13;;;31.20;58.90;;;;;;5052580;28;20040;-80
2021/07/28 09:11:06;;;;;;;10.48;3.42;;;31.20;59.10;;;;;;5053007;28;20025;-80
2021/07/28 09:13:39;;;;;;;8.80;3.53;;;31.30;59.30;;;;;;5052818;28;20472;-79
2021/07/28 09:16:08;;;;;;;9.82;3.35;;;31.30;57.10;;;;;;5054631;28;20028;-85
2021/07/28 09:18:37;;;;;;;8.15;3.58;;;31.30;56.20;;;;;;5055255;28;20762;-79
2021/07/28 09:21:05;;;;;;;6.90;3.25;;;31.40;59.10;;;;;;5053906;28;20024;-88
2021/07/28 09:23:40;;;;;;;10.82;3.13;;;31.40;56.80;;;;;;5053482;28;20032;-83
2021/07/28 09:26:43;;;;;;;6.82;3.10;;;31.40;57.10;;;;;;5055016;28;20541;-81
2021/07/28 09:29:14;;;;;;;13.60;3.40;;;31.50;57.70;;;;;;5041420;28;20116;-81
2021/07/28 09:31:41;;;;;;;10.50;3.38;;;31.60;57.60;;;;;;5053207;28;20082;-81
2021/07/28 09:34:30;;;;;;;9.13;3.28;;;31.70;57.40;;;;;;5053806;28;20102;-82
2021/07/28 09:37:04;;;;;;;9.70;3.30;;;31.80;57.70;;;;;;5053416;28;20024;-81
2021/07/28 09:39:29;;;;;;;13.10;3.33;;;31.80;55.80;;;;;;5053164;28;20049;-81
2021/07/28 09:42:15;;;;;;;9.18;3.25;;;31.90;58.00;;;;;;5054470;28;20024;-88
2021/07/28 09:44:44;;;;;;;8.75;3.10;;;32.00;56.20;;;;;;5051321;28;20503;-79
2021/07/28 09:47:18;;;;;;;8.07;3.28;;;32.10;55.30;;;;;;5034250;28;20029;-82
2021/07/28 09:49:49;;;;;;;10.93;3.80;;;32.20;56.60;;;;;;5032852;28;20036;-80
2021/07/28 09:52:26;;;;;;;13.45;3.60;;;32.20;54.90;;;;;;5032721;28;20259;-80
2021/07/28 09:54:53;;;;;;;9.73;3.08;;;32.30;54.20;;;;;;5032548;28;20041;-76
2021/07/28 09:57:26;;;;;;;13.98;3.42;;;32.40;53.30;;;;;;5037411;28;20104;-78
2021/07/28 10:00:05;;;;;;;7.68;3.40;;;32.40;54.00;;;;;;5031131;28;20025;-81
2021/07/28 10:02:33;;;;;;;11.25;3.38;;;32.40;52.30;;;;;;5031156;28;20469;-80
2021/07/28 10:05:02;;;;;;;8.45;3.50;;;32.40;53.20;;;;;;5032527;28;20478;-78
2021/07/28 10:07:30;;;;;;;11.18;3.35;;;32.50;53.50;;;;;;5031620;28;20025;-81
2021/07/28 10:10:08;;;;;;;10.10;3.60;;;32.50;53.20;;;;;;5031322;28;20489;-76
2021/07/28 10:12:35;;;;;;;9.75;3.42;;;32.50;53.10;;;;;;5032602;28;20029;-78
2021/07/28 10:15:01;;;;;;;8.63;3.38;;;32.70;52.50;;;;;;5031104;28;20554;-75
2021/07/28 10:17:28;;;;;;;7.45;3.70;;;32.80;51.80;;;;;;5032516;28;20026;-78
2021/07/28 10:19:54;;;;;;;13.82;3.65;;;32.90;52.60;;;;;;5031555;28;20032;-79
2021/07/28 10:22:19;;;;;;;8.70;3.75;;;33.00;53.10;;;;;;5031119;28;20025;-76
2021/07/28 10:24:47;;;;;;;12.27;3.92;;;33.00;54.60;;;;;;5031085;28;20022;-76
2021/07/28 10:27:14;;;;;;;8.20;3.25;;;33.00;54.80;;;;;;5031010;28;20033;-76
2021/07/28 10:29:40;;;;;;;13.63;3.50;;;33.20;56.10;;;;;;5032322;28;20075;-78
2021/07/28 10:32:06;;;;;;;9.02;3.53;;;33.30;51.90;;;;;;5030735;28;20404;-78
2021/07/28 10:34:33;;;;;;;8.80;3.15;;;33.30;52.10;;;;;;5030903;28;20087;-83
2021/07/28 10:37:07;;;;;;;11.38;3.50;;;33.40;52.90;;;;;;5030945;28;20030;-77
2021/07/28 10:39:33;;;;;;;9.77;3.55;;;33.50;53.60;;;;;;5030859;28;20488;-82
2021/07/28 10:41:59;;;;;;;9.82;3.55;;;33.60;51.80;;;;;;5032133;28;20075;-77
2021/07/28 10:44:24;;;;;;;6.13;3.03;;;33.70;52.20;;;;;;5032106;28;20022;-77
2021/07/28 10:46:53;;;;;;;10.68;3.63;;;33.70;51.90;;;;;;5030798;28;20026;-78
2021/07/28 10:49:34;;;;;;;6.88;3.03;;;33.80;50.80;;;;;;5030830;28;20350;-80
2021/07/28 10:52:00;;;;;;;8.35;3.50;;;33.60;50.50;;;;;;5030846;28;20028;-78
2021/07/28 10:54:52;;;;;;;7.68;3.28;;;33.50;52.10;;;;;;5031831;28;20037;-76
2021/07/28 10:57:38;;;;;;;8.23;3.20;;;33.50;51.20;;;;;;5031913;28;20438;-75
2021/07/28 11:00:09;;;;;;;18.50;4.07;;;33.50;50.60;;;;;;5031681;28;20088;-77
2021/07/28 11:02:57;;;;;;;7.25;3.38;;;33.50;51.80;;;;;;5030460;28;20032;-76
2021/07/28 11:05:27;;;;;;;7.03;3.10;;;33.60;51.40;;;;;;5015315;28;20124;-77
2021/07/28 11:07:58;;;;;;;7.65;3.45;;;33.50;52.20;;;;;;5031723;28;20032;-76
2021/07/28 11:10:25;;;;;;;9.20;3.25;;;33.70;51.80;;;;;;5030941;28;20141;-79
2021/07/28 11:12:51;;;;;;;7.80;3.30;;;33.70;51.80;;;;;;5032617;28;20063;-79
2021/07/28 11:15:17;;;;;;;10.95;3.65;;;33.70;51.70;;;;;;5033921;28;20029;-80
2021/07/28 11:17:43;;;;;;;11.52;3.70;;;33.80;52.20;;;;;;5033956;28;20040;-76
2021/07/28 11:20:30;;;;;;;11.43;4.18;;;33.70;52.00;;;;;;5034270;28;20120;-76
2021/07/28 11:23:21;;;;;;;8.35;3.33;;;33.70;52.10;;;;;;5035892;28;20025;-79
2021/07/28 11:25:58;;;;;;;11.52;3.80;;;33.70;53.00;;;;;;5036501;28;20484;-80
2021/07/28 11:28:25;;;;;;;13.38;3.70;;;33.70;51.60;;;;;;5035140;28;20044;-83
2021/07/28 11:30:57;;;;;;;12.63;3.70;;;33.50;51.50;;;;;;5035394;28;20052;-81
2021/07/28 11:33:23;;;;;;;9.35;3.25;;;33.50;52.80;;;;;;5035111;28;20040;-79
2021/07/28 11:35:51;;;;;;;8.57;3.55;;;33.60;52.30;;;;;;5035481;28;20045;-80
2021/07/28 11:38:23;;;;;;;7.05;3.50;;;33.70;51.80;;;;;;5035745;28;20469;-81
2021/07/28 11:40:58;;;;;;;12.00;3.78;;;33.80;51.90;;;;;;5035620;28;20061;-89
2021/07/28 11:43:42;;;;;;;7.15;3.28;;;33.80;51.50;;;;;;5036074;28;20032;-79
2021/07/28 11:46:15;;;;;;;13.23;3.72;;;33.90;52.30;;;;;;5035019;28;20032;-80
2021/07/28 11:48:45;;;;;;;10.55;3.70;;;33.90;51.40;;;;;;5033863;28;20362;-78
2021/07/28 11:51:26;;;;;;;8.68;3.63;;;34.10;50.80;;;;;;5033696;28;20030;-79
2021/07/28 11:54:12;;;;;;;11.27;4.35;;;34.10;50.90;;;;;;5033129;28;20026;-86
2021/07/28 11:56:46;;;;;;;9.95;3.72;;;34.10;51.40;;;;;;5032678;28;20886;-78
2021/07/28 11:59:13;;;;;;;11.38;3.70;;;34.10;52.30;;;;;;5034602;28;20022;-79
2021/07/28 12:01:49;;;;;;;9.25;3.70;;;34.10;50.90;;;;;;5033059;28;20452;-78
2021/07/28 12:04:24;;;;;;;9.38;3.60;;;34.10;51.80;;;;;;5033280;28;20021;-78
2021/07/28 12:06:52;;;;;;;10.55;3.65;;;34.10;52.30;;;;;;5033496;28;20039;-78
2021/07/28 12:09:22;;;;;;;11.27;3.92;;;34.20;52.60;;;;;;5034382;28;20046;-82
2021/07/28 12:11:57;;;;;;;10.10;4.18;;;34.40;52.30;;;;;;5033044;28;20021;-78
2021/07/28 12:14:38;;;;;;;;;;;34.50;51.10;;;;;;5033505;28;20120;-79
2021/07/28 12:17:13;;;;;;;6.03;3.60;;;34.50;50.20;;;;;;5033109;28;19956;-78
2021/07/28 12:19:39;;;;;;;10.23;3.85;;;34.50;50.20;;;;;;5033138;28;20030;-79
2021/07/28 12:22:10;;;;;;;19.63;4.43;;;34.40;50.20;;;;;;5033196;28;20469;-79
2021/07/28 12:24:45;;;;;;;8.60;3.67;;;34.50;51.30;;;;;;5032878;28;20026;-79
2021/07/28 12:27:29;;;;;;;12.27;4.32;;;34.40;53.60;;;;;;5035049;28;20116;-79
2021/07/28 12:29:59;;;;;;;10.35;4.22;;;34.40;53.40;;;;;;5033534;28;20132;-79
2021/07/28 12:32:38;;;;;;;8.38;3.90;;;34.30;53.60;;;;;;5032848;28;20028;-79
2021/07/28 12:35:32;;;;;;;12.35;3.92;;;34.30;54.00;;;;;;5033279;28;20033;-79
2021/07/28 12:38:10;;;;;;;8.10;3.50;;;34.10;54.70;;;;;;5033428;28;20026;-79
2021/07/28 12:40:38;;;;;;;10.45;3.90;;;34.10;55.00;;;;;;5035343;28;20033;-80
2021/07/28 12:43:05;;;;;;;10.15;3.50;;;34.10;54.40;;;;;;5034242;28;20021;-79
2021/07/28 12:45:31;;;;;;;10.73;4.25;;;34.10;53.70;;;;;;5034295;28;20044;-79
2021/07/28 12:47:56;;;;;;;9.30;3.30;;;33.90;52.70;;;;;;5034409;28;20124;-79
2021/07/28 12:50:22;;;;;;;14.40;4.18;;;34.10;54.70;;;;;;5036019;28;20380;-79